createdAt,value
2022-09-03T00:01:42.336Z,4
2022-09-03T00:07:34.930Z,3.5
2022-09-03T00:13:30.182Z,2.8
2022-09-03T00:19:21.042Z,4.6
2022-09-03T00:25:13.550Z,4.6
2022-09-03T00:31:04.961Z,3.6
2022-09-03T00:36:57.011Z,8.8
2022-09-03T00:42:48.029Z,3.8
2022-09-03T00:48:44.328Z,3.4
2022-09-03T00:54:35.351Z,5.2
2022-09-03T01:00:26.280Z,2.8
2022-09-03T01:06:16.876Z,5.6
2022-09-03T01:12:09.500Z,3.5
2022-09-03T01:18:00.259Z,3.8
2022-09-03T01:23:52.656Z,4
2022-09-03T01:29:44.541Z,2.8
2022-09-03T01:35:36.993Z,3.7
2022-09-03T01:41:28.658Z,3.9
2022-09-03T01:47:19.234Z,4.7
2022-09-03T01:53:10.400Z,5.2
2022-09-03T01:59:01.539Z,3.9
2022-09-03T02:04:52.821Z,3.3
2022-09-03T02:10:45.040Z,3.2
2022-09-03T02:16:37.010Z,3.4
2022-09-03T02:22:27.799Z,2.3
2022-09-03T02:28:22.514Z,2.4
2022-09-03T02:34:12.763Z,3.1
2022-09-03T02:40:06.278Z,3.3
2022-09-03T02:45:57.124Z,3.8
2022-09-03T02:51:47.987Z,3.5
2022-09-03T02:57:38.709Z,2.6
2022-09-03T03:03:29.683Z,3.2
2022-09-03T03:09:20.574Z,2.2
2022-09-03T03:15:11.701Z,2.6
2022-09-03T03:21:02.958Z,3
2022-09-03T03:26:53.372Z,3.1
2022-09-03T03:32:44.319Z,4.7
2022-09-03T03:38:34.709Z,2
2022-09-03T03:44:25.853Z,1.7
2022-09-03T03:50:16.852Z,5.2
2022-09-03T03:56:07.278Z,5
2022-09-03T04:01:58.507Z,6
2022-09-03T04:07:50.577Z,3.2
2022-09-03T04:13:41.027Z,3.7
2022-09-03T04:19:31.813Z,4.7
2022-09-03T04:25:22.730Z,2
2022-09-03T04:31:15.269Z,2
2022-09-03T04:37:06.509Z,4.2
2022-09-03T04:42:58.846Z,4
2022-09-03T04:48:49.245Z,2
2022-09-03T04:54:39.977Z,3.7
2022-09-03T05:00:31.770Z,2.5
2022-09-03T05:06:22.729Z,3
2022-09-03T05:12:13.849Z,2.6
2022-09-03T05:18:07.239Z,3.5
2022-09-03T05:23:59.055Z,3.4
2022-09-03T05:29:50.194Z,2.8
2022-09-03T05:35:41.525Z,3.6
2022-09-03T05:41:32.617Z,4.2
2022-09-03T05:47:24.314Z,4.8
2022-09-03T05:53:15.261Z,2.7
2022-09-03T05:59:07.047Z,4.1
2022-09-03T06:04:58.205Z,2.8
2022-09-03T06:10:49.743Z,2.8
2022-09-03T06:16:42.443Z,3.1
2022-09-03T06:22:33.924Z,2.7
2022-09-03T06:28:29.871Z,3.1
2022-09-03T06:34:20.440Z,2.7
2022-09-03T06:40:11.799Z,2.6
2022-09-03T06:46:03.051Z,4.1
2022-09-03T06:51:56.387Z,4.8
2022-09-03T06:57:47.514Z,6.1
2022-09-03T07:03:44.372Z,7.9
2022-09-03T07:09:34.485Z,3.2
2022-09-03T07:15:24.706Z,6.2
2022-09-03T07:21:16.359Z,4.3
2022-09-03T07:27:09.029Z,7.4
2022-09-03T07:33:04.637Z,5.9
2022-09-03T07:38:55.596Z,3.8
2022-09-03T07:44:46.597Z,3.4
2022-09-03T07:50:39.980Z,4.1
2022-09-03T07:56:32.162Z,3.5
2022-09-03T08:02:23.700Z,5.3
2022-09-03T08:08:21.469Z,4.2
2022-09-03T08:14:18.088Z,4.1
2022-09-03T08:20:14.907Z,4.7
2022-09-03T08:26:08.846Z,4
2022-09-03T08:39:10.572Z,4.5
2022-09-03T08:45:22.840Z,5.5
2022-09-03T08:51:43.539Z,6.4
2022-09-03T08:57:39.073Z,5.9
2022-09-03T09:03:56.528Z,5.4
2022-09-03T09:09:57.268Z,3.9
2022-09-03T09:15:55.769Z,2.9
2022-09-03T09:22:06.607Z,3.9
2022-09-03T09:28:32.889Z,3.9
2022-09-03T09:34:35.114Z,3.2
2022-09-03T09:40:25.907Z,3.3
2022-09-03T09:46:18.925Z,6.8
2022-09-03T09:52:10.583Z,4.1
2022-09-03T10:11:29.044Z,5.3
2022-09-03T10:17:41.254Z,4.3
2022-09-03T10:23:37.397Z,5.3
2022-09-03T10:29:36.820Z,6.5
2022-09-03T10:35:33.780Z,5
2022-09-03T10:41:26.743Z,6.9
2022-09-03T10:47:22.807Z,5.7
2022-09-03T11:00:12.349Z,6.4
2022-09-03T11:06:17.271Z,4.7
2022-09-03T11:18:37.270Z,5.1
2022-09-03T11:24:30.942Z,5
2022-09-03T11:30:25.193Z,4.6
2022-09-03T11:42:45.559Z,5.6
2022-09-03T11:48:46.783Z,5.9
2022-09-03T11:54:49.678Z,3.4
2022-09-03T12:00:40.501Z,5.2
2022-09-03T12:06:35.718Z,5.2
2022-09-03T12:12:48.381Z,6.1
2022-09-03T12:18:49.071Z,7
2022-09-03T12:24:44.493Z,4.8
2022-09-03T12:30:37.085Z,5.6
2022-09-03T12:36:28.479Z,5.3
2022-09-03T12:42:23.820Z,6.7
2022-09-03T12:48:17.387Z,4.6
2022-09-03T12:54:08.295Z,6.9
2022-09-03T13:00:02.558Z,4.4
2022-09-03T13:12:22.702Z,7.3
2022-09-03T13:18:15.196Z,5
2022-09-03T13:24:06.720Z,4.4
2022-09-03T13:36:43.548Z,5.5
2022-09-03T13:42:35.348Z,3.7
2022-09-03T13:48:31.504Z,3.7
2022-09-03T13:54:52.894Z,3.7
2022-09-03T14:00:43.180Z,4.4
2022-09-03T14:06:34.202Z,4.3
2022-09-03T14:12:27.282Z,5.2
2022-09-03T14:18:18.464Z,4.3
2022-09-03T14:31:00.956Z,5
2022-09-03T14:36:53.446Z,3.6
2022-09-03T14:49:45.389Z,4.4
2022-09-03T14:56:04.793Z,5.5
2022-09-03T15:08:43.502Z,5.3
2022-09-03T15:28:15.967Z,4.8
2022-09-03T15:34:13.108Z,5.6
2022-09-03T15:40:02.816Z,4.9
2022-09-03T15:47:03.741Z,6.1
2022-09-03T15:53:28.110Z,7.1
2022-09-03T15:59:46.399Z,6
2022-09-03T16:19:01.599Z,6.2
2022-09-03T16:24:58.965Z,4.5
2022-09-03T16:31:04.028Z,6.9
2022-09-03T16:36:57.689Z,6.7
2022-09-03T16:42:49.334Z,6.4
2022-09-03T16:48:41.796Z,6.6
2022-09-03T16:54:32.845Z,5.9
2022-09-03T17:00:25.344Z,4.8
2022-09-03T17:06:34.851Z,4.8
2022-09-03T17:12:26.837Z,3.5
2022-09-03T17:18:20.843Z,3.6
2022-09-03T17:24:12.848Z,5
2022-09-03T17:30:04.689Z,4.6
2022-09-03T17:35:55.627Z,4.7
2022-09-03T17:41:45.627Z,5.3
2022-09-03T17:47:36.101Z,4.8
2022-09-03T17:53:28.027Z,5.2
2022-09-03T17:59:20.627Z,5
2022-09-03T18:05:12.480Z,5.3
2022-09-03T18:11:04.789Z,5.5
2022-09-03T18:16:54.980Z,5.1
2022-09-03T18:22:46.415Z,5.3
2022-09-03T18:28:39.585Z,6.3
2022-09-03T18:34:31.145Z,6.8
2022-09-03T18:40:43.436Z,6.8
2022-09-03T18:48:22.630Z,8.2
2022-09-03T18:54:16.427Z,9.1
2022-09-03T19:00:05.670Z,8
2022-09-03T19:05:55.888Z,9.5
2022-09-03T19:11:57.020Z,6.6
2022-09-03T19:17:50.686Z,7.5
2022-09-03T19:23:42.872Z,5.9
2022-09-03T19:29:39.664Z,7.6
2022-09-03T19:35:41.900Z,7.4
2022-09-03T19:41:45.362Z,7.5
2022-09-03T19:47:34.795Z,7.5
2022-09-03T19:53:25.256Z,7.9
2022-09-03T19:59:16.733Z,7.5
2022-09-03T20:05:13.862Z,8.3
2022-09-03T20:11:06.581Z,8.5
2022-09-03T20:17:04.851Z,10.6
2022-09-03T20:23:28.245Z,11.1
2022-09-03T20:41:51.050Z,12.7
2022-09-03T20:47:54.121Z,13.8
2022-09-03T21:00:14.261Z,13.1
2022-09-03T21:06:05.989Z,15.2
2022-09-03T21:12:01.959Z,14.6
2022-09-03T21:17:51.443Z,13.9
2022-09-03T21:23:59.669Z,16
2022-09-03T21:43:30.732Z,17.8
2022-09-03T21:55:45.850Z,21.2
2022-09-03T22:01:38.446Z,20.4
2022-09-03T22:07:30.788Z,19.6
2022-09-03T22:13:24.018Z,18.5
2022-09-03T22:19:16.125Z,20.3
2022-09-03T22:25:33.852Z,18.2
2022-09-03T22:31:44.358Z,18.6
2022-09-03T22:37:36.117Z,19.5
2022-09-03T22:43:25.415Z,17.9
2022-09-03T22:49:30.936Z,18.7
2022-09-03T22:55:39.771Z,19
2022-09-03T23:01:30.843Z,19.1
